Time;durP1;ratioP1;P1;durP2;ratioP2;P2;SDS_P1;SDS_P2;PMS_P1;PMS_P2;Temp;Humidity;BMP_temperature;BMP_pressure;BME280_temperature;BME280_humidity;BME280_pressure;Samples;Min_cycle;Max_cycle;Signal;HPM_P1;HPM_P2
2024/04/10 00:01:13;;;;;;;;;;;;;;;9.72;100.00;101032.83;106409;1257;67258;-81
2024/04/10 00:03:41;;;;;;;;;;;;;;;9.70;100.00;101029.27;106407;1254;72363;-81
2024/04/10 00:06:09;;;;;;;;;;;;;;;9.65;100.00;101028.80;106318;1254;61308;-81
2024/04/10 00:08:37;;;;;;;;;;;;;;;9.61;100.00;101025.58;106364;1258;61086;-82
2024/04/10 00:11:06;;;;;;;;;;;;;;;9.56;100.00;101027.66;106254;1253;75781;-82
2024/04/10 00:13:34;;;;;;;;;;;;;;;9.52;100.00;101029.05;106388;1253;69180;-85
2024/04/10 00:16:02;;;;;;;;;;;;;;;9.51;100.00;101031.39;106207;1256;71471;-81
2024/04/10 00:18:29;;;;;;;;;;;;;;;9.51;100.00;101034.11;106374;1253;61224;-81
2024/04/10 00:20:57;;;;;;;;;;;;;;;9.49;100.00;101033.88;106329;1253;61195;-81
2024/04/10 00:23:25;;;;;;;;;;;;;;;9.48;100.00;101033.91;106460;1254;73489;-81
2024/04/10 00:25:56;;;;;;;;;;;;;;;9.50;100.00;101038.86;106155;1253;68552;-81
2024/04/10 00:28:23;;;;;;;;;;;;;;;9.49;100.00;101042.07;106138;1259;72457;-85
2024/04/10 00:30:51;;;;;;;;;;;;;;;9.47;100.00;101035.93;106176;1253;61266;-85
2024/04/10 00:33:19;;;;;;;;;;;;;;;9.44;100.00;101035.90;106199;1256;61077;-86
2024/04/10 00:35:53;;;;;;;;;;;;;;;9.41;100.00;101032.05;106403;1256;75114;-86
2024/04/10 00:38:21;;;;;;;;;;;;;;;9.36;100.00;101024.85;106115;1253;67984;-85
2024/04/10 00:41:06;;;;;;;;;;;;;;;9.31;100.00;101030.16;106356;1253;72380;-85
2024/04/10 00:43:34;;;;;;;;;;;;;;;9.26;100.00;101034.41;106380;1254;61234;-86
2024/04/10 00:46:14;;;;;;;;;;;;;;;9.23;100.00;101031.98;106156;1256;61160;-85
2024/04/10 00:48:42;;;;;;;;;;;;;;;9.19;100.00;101025.81;106828;1256;73457;-85
2024/04/10 00:51:10;;;;;;;;;;;;;;;9.13;100.00;101024.49;106384;1254;67841;-85
2024/04/10 00:53:38;;;;;;;;;;;;;;;9.10;100.00;101031.55;106352;1254;72576;-85
2024/04/10 00:56:05;;;;;;;;;;;;;;;9.09;100.00;101031.42;106055;1253;61376;-85
2024/04/10 00:58:33;;;;;;;;;;;;;;;9.06;100.00;101028.56;106218;1253;61278;-86
2024/04/10 01:01:00;;;;;;;;;;;;;;;9.04;100.00;101028.22;106126;1254;74742;-85
2024/04/10 01:03:28;;;;;;;;;;;;;;;9.07;100.00;101025.23;106218;1256;68489;-85
2024/04/10 01:05:57;;;;;;;;;;;;;;;9.07;100.00;101030.00;106692;1254;72907;-85
2024/04/10 01:08:24;;;;;;;;;;;;;;;9.04;100.00;101036.78;106303;1255;61276;-85
2024/04/10 01:10:52;;;;;;;;;;;;;;;9.04;100.00;101038.80;106415;1253;61168;-85
2024/04/10 01:13:20;;;;;;;;;;;;;;;9.06;100.00;101039.74;106289;1257;72623;-86
2024/04/10 01:15:47;;;;;;;;;;;;;;;9.04;100.00;101040.20;106244;1253;67321;-85
2024/04/10 01:18:14;;;;;;;;;;;;;;;9.03;100.00;101038.02;106595;1254;72772;-86
2024/04/10 01:20:42;;;;;;;;;;;;;;;9.00;100.00;101036.99;106235;1254;61227;-86
2024/04/10 01:23:09;;;;;;;;;;;;;;;8.96;100.00;101034.23;106296;1256;61277;-82
2024/04/10 01:25:37;;;;;;;;;;;;;;;8.91;100.00;101030.57;106300;1253;74745;-82
2024/04/10 01:28:04;;;;;;;;;;;;;;;8.89;100.00;101029.60;106352;1259;67320;-82
2024/04/10 01:30:32;;;;;;;;;;;;;;;8.84;100.00;101031.08;106116;1260;71489;-82
2024/04/10 01:32:59;;;;;;;;;;;;;;;8.78;100.00;101030.35;106369;1253;61253;-81
2024/04/10 01:35:27;;;;;;;;;;;;;;;8.68;100.00;101033.77;106219;1253;61501;-82
2024/04/10 01:37:55;;;;;;;;;;;;;;;8.73;100.00;101031.05;106373;1254;73743;-81
2024/04/10 01:40:22;;;;;;;;;;;;;;;8.73;100.00;101035.09;106307;1254;68505;-82
2024/04/10 01:42:50;;;;;;;;;;;;;;;8.72;100.00;101032.13;106048;1253;72562;-81
2024/04/10 01:45:17;;;;;;;;;;;;;;;8.70;100.00;101036.50;106115;1256;61278;-82
2024/04/10 01:47:45;;;;;;;;;;;;;;;8.67;100.00;101034.02;106369;1253;61394;-82
2024/04/10 01:50:12;;;;;;;;;;;;;;;8.60;100.00;101037.59;106311;1253;74626;-82
2024/04/10 01:52:40;;;;;;;;;;;;;;;8.59;100.00;101035.17;106313;1254;67591;-81
2024/04/10 01:55:07;;;;;;;;;;;;;;;8.59;100.00;101030.21;106113;1253;72540;-85
2024/04/10 01:57:35;;;;;;;;;;;;;;;8.59;100.00;101032.61;106734;1259;61321;-85
2024/04/10 02:00:03;;;;;;;;;;;;;;;8.58;100.00;101029.16;106766;1254;61318;-86
2024/04/10 02:02:36;;;;;;;;;;;;;;;8.57;100.00;101033.50;106997;1254;74952;-86
2024/04/10 02:05:04;;;;;;;;;;;;;;;8.55;100.00;101039.21;106253;1254;68731;-85
2024/04/10 02:07:32;;;;;;;;;;;;;;;8.53;100.00;101039.83;106332;1258;72684;-85
2024/04/10 02:09:59;;;;;;;;;;;;;;;8.51;100.00;101041.55;106348;1256;61329;-85
2024/04/10 02:12:27;;;;;;;;;;;;;;;8.52;100.00;101039.22;106287;1253;63381;-85
2024/04/10 02:14:54;;;;;;;;;;;;;;;8.48;100.00;101038.58;106155;1253;74686;-82
2024/04/10 02:17:21;;;;;;;;;;;;;;;8.47;100.00;101037.69;106635;1259;68786;-82
2024/04/10 02:19:49;;;;;;;;;;;;;;;8.46;100.00;101034.77;106186;1253;72716;-85
2024/04/10 02:22:17;;;;;;;;;;;;;;;8.45;100.00;101038.26;106247;1257;61352;-85
2024/04/10 02:24:44;;;;;;;;;;;;;;;8.47;100.00;101032.56;106275;1254;61334;-85
2024/04/10 02:27:12;;;;;;;;;;;;;;;8.47;100.00;101027.21;106206;1253;73447;-85
2024/04/10 02:29:40;;;;;;;;;;;;;;;8.48;100.00;101027.77;106666;1254;67298;-85
2024/04/10 02:32:08;;;;;;;;;;;;;;;8.48;100.00;101028.45;106343;1259;72553;-85
2024/04/10 02:34:36;;;;;;;;;;;;;;;8.47;100.00;101029.02;106268;1253;61333;-82
2024/04/10 02:37:04;;;;;;;;;;;;;;;8.45;100.00;101033.89;106350;1253;61144;-83
2024/04/10 02:39:31;;;;;;;;;;;;;;;8.43;100.00;101038.38;106251;1254;74766;-85
2024/04/10 02:41:59;;;;;;;;;;;;;;;8.37;100.00;101042.37;106276;1259;68932;-85
2024/04/10 02:44:26;;;;;;;;;;;;;;;8.27;100.00;101046.61;106376;1254;71149;-86
2024/04/10 02:46:55;;;;;;;;;;;;;;;8.22;100.00;101047.78;107655;1254;61259;-85
2024/04/10 02:49:22;;;;;;;;;;;;;;;8.19;100.00;101047.70;106350;1253;61321;-86
2024/04/10 02:51:50;;;;;;;;;;;;;;;8.18;100.00;101047.47;106265;1258;74669;-86
2024/04/10 02:54:17;;;;;;;;;;;;;;;8.17;100.00;101047.95;106378;1254;68511;-86
2024/04/10 02:56:45;;;;;;;;;;;;;;;8.14;100.00;101045.12;106240;1254;71144;-86
2024/04/10 02:59:12;;;;;;;;;;;;;;;8.13;100.00;101045.38;106101;1258;61318;-87
2024/04/10 03:01:40;;;;;;;;;;;;;;;8.11;100.00;101052.45;106276;1256;61151;-87
2024/04/10 03:04:07;;;;;;;;;;;;;;;8.09;100.00;101055.05;106263;1254;74034;-87
2024/04/10 03:06:35;;;;;;;;;;;;;;;8.09;100.00;101064.52;106323;1258;67722;-87
2024/04/10 03:09:02;;;;;;;;;;;;;;;8.09;100.00;101063.87;106309;1258;71441;-87
2024/04/10 03:11:30;;;;;;;;;;;;;;;8.08;100.00;101064.71;106463;1256;61253;-82
2024/04/10 03:13:57;;;;;;;;;;;;;;;8.08;100.00;101066.63;106553;1253;61282;-82
2024/04/10 03:16:25;;;;;;;;;;;;;;;8.08;100.00;101063.04;106362;1254;73424;-83
2024/04/10 03:18:52;;;;;;;;;;;;;;;8.08;100.00;101066.14;106430;1254;68980;-82
2024/04/10 03:21:20;;;;;;;;;;;;;;;8.08;100.00;101068.31;106428;1259;72384;-85
2024/04/10 03:23:48;;;;;;;;;;;;;;;8.08;100.00;101071.42;106356;1254;61315;-86
2024/04/10 03:26:16;;;;;;;;;;;;;;;8.10;100.00;101069.61;106447;1257;61225;-86
2024/04/10 03:28:43;;;;;;;;;;;;;;;8.15;100.00;101075.60;106221;1254;74667;-86
2024/04/10 03:31:11;;;;;;;;;;;;;;;8.17;100.00;101081.04;106898;1259;67292;-86
2024/04/10 03:33:39;;;;;;;;;;;;;;;8.20;100.00;101087.03;106356;1254;72669;-86
2024/04/10 03:36:07;;;;;;;;;;;;;;;8.24;100.00;101087.02;106221;1258;61224;-86
2024/04/10 03:38:34;;;;;;;;;;;;;;;8.27;100.00;101087.77;106223;1253;61267;-87
2024/04/10 03:41:02;;;;;;;;;;;;;;;8.29;100.00;101092.01;106352;1258;72453;-86
2024/04/10 03:43:30;;;;;;;;;;;;;;;8.31;100.00;101090.45;106303;1253;68054;-86
2024/04/10 03:45:58;;;;;;;;;;;;;;;8.31;100.00;101088.73;106536;1254;70583;-87
2024/04/10 03:48:25;;;;;;;;;;;;;;;8.34;100.00;101084.89;106360;1254;62037;-87
2024/04/10 03:50:57;;;;;;;;;;;;;;;8.34;100.00;101089.20;106448;1253;62122;-82
2024/04/10 03:53:25;;;;;;;;;;;;;;;8.40;100.00;101084.46;106169;1260;76044;-82
2024/04/10 03:55:54;;;;;;;;;;;;;;;8.43;100.00;101086.86;106128;1254;70914;-82
2024/04/10 03:58:22;;;;;;;;;;;;;;;8.53;100.00;101089.57;106383;1255;71447;-82
2024/04/10 04:00:50;;;;;;;;;;;;;;;8.62;100.00;101091.98;106269;1254;64690;-83
2024/04/10 04:03:24;;;;;;;;;;;;;;;8.69;100.00;101093.00;106221;1254;61966;-87
2024/04/10 04:05:53;;;;;;;;;;;;;;;8.76;100.00;101099.05;106298;1254;75927;-87
2024/04/10 04:08:23;;;;;;;;;;;;;;;8.84;100.00;101103.30;106423;1252;68680;-85
2024/04/10 04:10:50;;;;;;;;;;;;;;;8.93;100.00;101100.91;107049;1254;72619;-87
2024/04/10 04:13:20;;;;;;;;;;;;;;;9.07;100.00;101104.65;106351;1259;62024;-87
2024/04/10 04:15:48;;;;;;;;;;;;;;;9.19;100.00;101104.84;106177;1254;62114;-86
2024/04/10 04:18:16;;;;;;;;;;;;;;;9.34;100.00;101105.84;106405;1253;75660;-87
2024/04/10 04:20:45;;;;;;;;;;;;;;;9.49;100.00;101103.17;106214;1259;67313;-86
2024/04/10 04:23:12;;;;;;;;;;;;;;;9.68;100.00;101106.48;106490;1256;73173;-86
2024/04/10 04:25:40;;;;;;;;;;;;;;;9.85;100.00;101102.17;105968;1257;62053;-86
2024/04/10 04:28:08;;;;;;;;;;;;;;;10.04;100.00;101106.05;106410;1254;62053;-86
2024/04/10 04:30:37;;;;;;;;;;;;;;;10.22;100.00;101106.27;106425;1253;75542;-86
2024/04/10 04:33:04;;;;;;;;;;;;;;;10.39;100.00;101109.20;106290;1258;67227;-85
2024/04/10 04:35:32;;;;;;;;;;;;;;;10.57;100.00;101114.75;106092;1254;72724;-85
2024/04/10 04:38:00;;;;;;;;;;;;;;;10.77;100.00;101115.69;106905;1256;62015;-86
2024/04/10 04:40:30;;;;;;;;;;;;;;;10.96;100.00;101118.86;106126;1254;62105;-85
2024/04/10 04:42:59;;;;;;;;;;;;;;;11.17;100.00;101114.27;106428;1259;76042;-83
2024/04/10 04:45:26;;;;;;;;;;;;;;;11.39;100.00;101113.08;106329;1254;68549;-84
2024/04/10 04:47:54;;;;;;;;;;;;;;;11.61;100.00;101114.95;106406;1257;72732;-85
2024/04/10 04:50:21;;;;;;;;;;;;;;;11.83;100.00;101115.88;106287;1254;62165;-86
2024/04/10 04:52:50;;;;;;;;;;;;;;;12.04;100.00;101113.73;106464;1254;61955;-85
2024/04/10 04:55:18;;;;;;;;;;;;;;;12.26;100.00;101118.34;106236;1253;75654;-84
2024/04/10 04:57:45;;;;;;;;;;;;;;;12.49;100.00;101121.34;106455;1257;68498;-84
2024/04/10 05:00:14;;;;;;;;;;;;;;;12.73;100.00;101119.83;106460;1254;71706;-85
2024/04/10 05:02:41;;;;;;;;;;;;;;;12.97;100.00;101116.63;106147;1259;62028;-86
2024/04/10 05:05:13;;;;;;;;;;;;;;;13.21;100.00;101113.70;106272;1253;60609;-86
2024/04/10 05:07:41;;;;;;;;;;;;;;;13.44;100.00;101116.64;106374;1254;77594;-87
2024/04/10 05:10:09;;;;;;;;;;;;;;;13.61;100.00;101117.38;107041;1253;68569;-87
2024/04/10 05:12:38;;;;;;;;;;;;;;;13.83;100.00;101121.14;106411;1259;72778;-87
2024/04/10 05:15:06;;;;;;;;;;;;;;;14.11;100.00;101120.72;106292;1258;62098;-87
2024/04/10 05:17:41;;;;;;;;;;;;;;;14.43;100.00;101119.84;106394;1253;62136;-88
2024/04/10 05:20:31;;;;;;;;;;;;;;;14.80;100.00;101122.92;105925;1254;77458;-87
2024/04/10 05:22:58;;;;;;;;;;;;;;;15.12;100.00;101125.76;106301;1259;69076;-88
2024/04/10 05:25:26;;;;;;;;;;;;;;;15.45;100.00;101127.39;106698;1253;74462;-89
2024/04/10 05:27:53;;;;;;;;;;;;;;;15.76;100.00;101126.05;106235;1254;62211;-87
2024/04/10 05:30:21;;;;;;;;;;;;;;;16.06;100.00;101129.29;106261;1253;62163;-88
2024/04/10 05:32:49;;;;;;;;;;;;;;;16.37;100.00;101122.66;106212;1253;74657;-87
2024/04/10 05:35:17;;;;;;;;;;;;;;;16.69;100.00;101124.54;106142;1261;69811;-87
2024/04/10 05:37:44;;;;;;;;;;;;;;;16.98;100.00;101128.86;106241;1259;74904;-87
2024/04/10 05:40:16;;;;;;;;;;;;;;;17.28;100.00;101129.48;106240;1254;62668;-88
2024/04/10 05:42:47;;;;;;;;;;;;;;;17.54;100.00;101137.16;106171;1253;62162;-87
2024/04/10 05:45:17;;;;;;;;;;;;;;;17.78;100.00;101135.64;106995;1253;75745;-87
2024/04/10 05:47:48;;;;;;;;;;;;;;;18.04;100.00;101137.21;106159;1259;67708;-85
2024/04/10 05:50:22;;;;;;;;;;;;;;;18.30;100.00;101135.81;106161;1254;72458;-88
2024/04/10 05:52:50;;;;;;;;;;;;;;;18.55;100.00;101135.45;106247;1257;62219;-87
2024/04/10 05:55:17;;;;;;;;;;;;;;;18.81;100.00;101136.56;106269;1260;61987;-87
2024/04/10 05:57:48;;;;;;;;;;;;;;;19.02;100.00;101135.81;106140;1257;75570;-87
2024/04/10 06:00:17;;;;;;;;;;;;;;;19.20;100.00;101134.78;106108;1259;67708;-87
2024/04/10 06:02:44;;;;;;;;;;;;;;;19.40;93.25;101137.27;106632;1253;73869;-88
2024/04/10 06:05:12;;;;;;;;;;;;;;;19.61;83.85;101139.87;106129;1259;62076;-88
2024/04/10 06:07:44;;;;;;;;;;;;;;;19.80;83.25;101140.93;106308;1259;62114;-86
2024/04/10 06:10:12;;;;;;;;;;;;;;;19.99;81.30;101139.02;106253;1259;77639;-87
2024/04/10 06:12:39;;;;;;;;;;;;;;;20.20;80.31;101138.60;106487;1259;71500;-87
2024/04/10 06:15:07;;;;;;;;;;;;;;;20.44;78.02;101136.35;106408;1257;73325;-87
2024/04/10 06:17:36;;;;;;;;;;;;;;;20.69;73.40;101137.14;106941;1254;61928;-86
2024/04/10 06:20:05;;;;;;;;;;;;;;;20.93;68.79;101142.05;106373;1258;61954;-86
2024/04/10 06:22:32;;;;;;;;;;;;;;;21.17;65.98;101142.93;106271;1253;74081;-86
2024/04/10 06:25:00;;;;;;;;;;;;;;;21.36;61.78;101143.66;106400;1254;71101;-87
2024/04/10 06:27:27;;;;;;;;;;;;;;;21.51;56.78;101146.80;106195;1254;74897;-86
2024/04/10 06:29:58;;;;;;;;;;;;;;;21.60;54.05;101149.85;105960;1260;62210;-87
2024/04/10 06:32:26;;;;;;;;;;;;;;;21.67;54.47;101152.63;106379;1259;60849;-87
2024/04/10 06:34:53;;;;;;;;;;;;;;;21.79;52.15;101162.02;107220;1259;75981;-87
2024/04/10 06:37:21;;;;;;;;;;;;;;;21.84;50.93;101161.61;107034;1259;71092;-86
2024/04/10 06:39:49;;;;;;;;;;;;;;;21.96;51.95;101166.40;106398;1259;72099;-86
2024/04/10 06:42:17;;;;;;;;;;;;;;;22.07;51.64;101163.59;106270;1259;62159;-86
2024/04/10 06:44:44;;;;;;;;;;;;;;;22.14;51.43;101167.09;106398;1254;62011;-86
2024/04/10 06:47:13;;;;;;;;;;;;;;;22.23;49.77;101168.83;106428;1253;76469;-87
2024/04/10 06:49:40;;;;;;;;;;;;;;;22.30;48.40;101170.29;106363;1257;71046;-87
2024/04/10 06:52:08;;;;;;;;;;;;;;;22.37;49.04;101170.58;106330;1257;73171;-87
2024/04/10 06:54:35;;;;;;;;;;;;;;;22.42;49.36;101169.13;106253;1257;62021;-88
2024/04/10 06:57:03;;;;;;;;;;;;;;;22.46;49.18;101168.52;106382;1254;62214;-87
2024/04/10 06:59:30;;;;;;;;;;;;;;;22.52;48.65;101171.86;106076;1257;76302;-85
2024/04/10 07:02:01;;;;;;;;;;;;;;;22.59;49.68;101169.19;106290;1253;70867;-87
2024/04/10 07:04:30;;;;;;;;;;;;;;;22.65;48.38;101172.65;105871;1256;71882;-87
2024/04/10 07:07:01;;;;;;;;;;;;;;;22.71;48.85;101172.28;106627;1254;62024;-88
2024/04/10 07:09:33;;;;;;;;;;;;;;;22.80;50.31;101173.38;106469;1254;61948;-87
2024/04/10 07:12:01;;;;;;;;;;;;;;;22.90;50.24;101172.64;106189;1254;76464;-86
2024/04/10 07:14:34;;;;;;;;;;;;;;;23.00;48.08;101170.74;106222;1254;68437;-87
2024/04/10 07:17:04;;;;;;;;;;;;;;;23.06;47.12;101170.02;106480;1253;75025;-88
2024/04/10 07:19:34;;;;;;;;;;;;;;;23.20;48.02;101169.69;106076;1260;62041;-87
2024/04/10 07:22:08;;;;;;;;;;;;;;;23.31;48.22;101172.68;106298;1255;62171;-87
2024/04/10 07:24:37;;;;;;;;;;;;;;;23.39;48.09;101170.80;106359;1259;76446;-87
2024/04/10 07:27:05;;;;;;;;;;;;;;;23.48;47.45;101170.09;106135;1259;71011;-87
2024/04/10 07:29:32;;;;;;;;;;;;;;;23.52;44.89;101169.30;106253;1253;74970;-87
2024/04/10 07:32:02;;;;;;;;;;;;;;;23.58;44.55;101169.64;106159;1254;62037;-85
2024/04/10 07:34:30;;;;;;;;;;;;;;;23.63;45.61;101168.98;106439;1254;62092;-87
2024/04/10 07:36:58;;;;;;;;;;;;;;;23.72;45.91;101168.17;106429;1258;77604;-85
2024/04/10 07:39:25;;;;;;;;;;;;;;;23.86;45.80;101165.50;107061;1256;67211;-87
2024/04/10 07:41:53;;;;;;;;;;;;;;;24.09;45.31;101168.66;106160;1254;74861;-87
2024/04/10 07:44:20;;;;;;;;;;;;;;;24.38;43.71;101169.80;106501;1261;62077;-85
2024/04/10 07:46:49;;;;;;;;;;;;;;;24.68;43.85;101172.48;106379;1258;62140;-85
2024/04/10 07:49:17;;;;;;;;;;;;;;;24.86;43.37;101168.96;106302;1260;68626;-86
2024/04/10 07:51:46;;;;;;;;;;;;;;;24.94;41.77;101173.00;106325;1254;61961;-88
2024/04/10 07:54:13;;;;;;;;;;;;;;;24.97;43.33;101174.12;106371;1258;74251;-86
2024/04/10 07:56:41;;;;;;;;;;;;;;;25.04;43.09;101172.88;106342;1257;62092;-85
2024/04/10 07:59:08;;;;;;;;;;;;;;;25.17;42.63;101172.09;106216;1254;62149;-88
2024/04/10 08:01:36;;;;;;;;;;;;;;;25.34;42.39;101172.66;106295;1254;68239;-87
2024/04/10 08:04:06;;;;;;;;;;;;;;;25.42;41.33;101170.72;106192;1259;73330;-88
2024/04/10 08:06:36;;;;;;;;;;;;;;;25.49;41.61;101168.23;106246;1258;73935;-88
2024/04/10 08:09:04;;;;;;;;;;;;;;;25.59;41.75;101165.52;106322;1254;62062;-86
2024/04/10 08:11:33;;;;;;;;;;;;;;;25.65;43.26;101163.56;106474;1260;61943;-85
2024/04/10 08:14:01;;;;;;;;;;;;;;;25.65;42.57;101163.88;106293;1256;66808;-83
2024/04/10 08:16:29;;;;;;;;;;;;;;;25.64;42.68;101160.91;106475;1254;70645;-86
2024/04/10 08:18:57;;;;;;;;;;;;;;;25.70;42.76;101158.96;107380;1257;63007;-86
2024/04/10 08:21:24;;;;;;;;;;;;;;;25.77;41.97;101159.33;106379;1255;62219;-84
2024/04/10 08:23:52;;;;;;;;;;;;;;;25.78;40.56;101155.98;106396;1253;62041;-83
2024/04/10 08:26:20;;;;;;;;;;;;;;;25.85;39.98;101159.13;106313;1256;67354;-85
2024/04/10 08:28:55;;;;;;;;;;;;;;;26.08;39.43;101158.11;106299;1260;62280;-88
2024/04/10 08:31:23;;;;;;;;;;;;;;;26.30;39.15;101157.77;106464;1257;66666;-87
2024/04/10 08:33:51;;;;;;;;;;;;;;;26.40;39.30;101155.34;106298;1259;62129;-83
2024/04/10 08:36:21;;;;;;;;;;;;;;;26.53;40.02;101152.08;106203;1259;62110;-86
2024/04/10 08:38:49;;;;;;;;;;;;;;;26.63;40.68;101147.95;106355;1260;68039;-87
2024/04/10 08:41:18;;;;;;;;;;;;;;;26.68;39.59;101146.60;106478;1257;62075;-84
2024/04/10 08:43:46;;;;;;;;;;;;;;;26.63;38.80;101144.09;106361;1254;66121;-87
2024/04/10 08:46:15;;;;;;;;;;;;;;;26.52;39.20;101142.04;106387;1258;62024;-87
2024/04/10 08:48:43;;;;;;;;;;;;;;;26.45;38.12;101138.85;106404;1258;61958;-84
2024/04/10 08:51:12;;;;;;;;;;;;;;;26.45;38.16;101139.09;106394;1254;69031;-84
2024/04/10 08:53:41;;;;;;;;;;;;;;;26.51;37.16;101143.14;106605;1259;61315;-86
2024/04/10 08:56:09;;;;;;;;;;;;;;;26.55;37.63;101144.53;106207;1259;64895;-84
2024/04/10 08:58:37;;;;;;;;;;;;;;;26.60;37.37;101143.48;106306;1260;62134;-83
2024/04/10 09:01:06;;;;;;;;;;;;;;;26.65;36.27;101139.09;106483;1253;62156;-84
2024/04/10 09:03:34;;;;;;;;;;;;;;;26.76;36.08;101136.48;106318;1253;78114;-83
2024/04/10 09:06:03;;;;;;;;;;;;;;;26.84;36.28;101135.75;106292;1259;61948;-87
2024/04/10 09:08:30;;;;;;;;;;;;;;;26.91;36.92;101137.48;106195;1259;65947;-87
2024/04/10 09:10:58;;;;;;;;;;;;;;;26.95;37.04;101135.14;106403;1259;62092;-87
2024/04/10 09:13:25;;;;;;;;;;;;;;;27.02;38.31;101126.77;106239;1259;62142;-87
2024/04/10 09:15:56;;;;;;;;;;;;;;;27.13;37.26;101124.86;106573;1254;68649;-85
2024/04/10 09:18:24;;;;;;;;;;;;;;;27.14;35.75;101118.62;106480;1259;62140;-87
2024/04/10 09:21:07;;;;;;;;;;;;;;;27.12;36.64;101117.46;106317;1259;66082;-88
2024/04/10 09:23:35;;;;;;;;;;;;;;;27.06;36.80;101119.13;106716;1260;63020;-85
2024/04/10 09:26:06;;;;;;;;;;;;;;;27.06;35.92;101118.89;106267;1262;61976;-87
2024/04/10 09:28:34;;;;;;;;;;;;;;;27.11;35.40;101121.37;106408;1256;67767;-87
2024/04/10 09:31:01;;;;;;;;;;;;;;;27.23;35.11;101122.14;106353;1260;62149;-87
2024/04/10 09:33:33;;;;;;;;;;;;;;;27.28;34.27;101123.42;106274;1260;73331;-84
2024/04/10 09:36:04;;;;;;;;;;;;;;;27.27;33.87;101123.02;106236;1260;62060;-87
2024/04/10 09:38:33;;;;;;;;;;;;;;;27.37;34.44;101124.12;106380;1258;64817;-87
2024/04/10 09:41:05;;;;;;;;;;;;;;;27.45;34.78;101117.91;106370;1259;68628;-88
2024/04/10 09:43:33;;;;;;;;;;;;;;;27.47;34.97;101117.60;106326;1257;62277;-85
2024/04/10 09:46:02;;;;;;;;;;;;;;;27.36;35.10;101115.92;106294;1254;74994;-87
2024/04/10 09:48:33;;;;;;;;;;;;;;;27.33;36.79;101116.36;106219;1257;62686;-85
2024/04/10 09:51:03;;;;;;;;;;;;;;;27.33;35.84;101117.16;106233;1259;62210;-82
2024/04/10 09:53:34;;;;;;;;;;;;;;;27.25;36.55;101112.01;106590;1256;77632;-82
2024/04/10 09:56:02;;;;;;;;;;;;;;;27.25;37.12;101111.45;106343;1253;69817;-85
2024/04/10 09:58:33;;;;;;;;;;;;;;;27.26;37.08;101113.79;106246;1254;74923;-86
2024/04/10 10:01:01;;;;;;;;;;;;;;;27.29;36.23;101118.64;106619;1256;62133;-86
2024/04/10 10:03:29;;;;;;;;;;;;;;;27.24;34.56;101116.80;106345;1254;62540;-87
2024/04/10 10:06:00;;;;;;;;;;;;;;;27.20;35.09;101115.67;106454;1260;68882;-86
2024/04/10 10:08:28;;;;;;;;;;;;;;;27.25;35.65;101114.73;106544;1254;69226;-85
2024/04/10 10:10:57;;;;;;;;;;;;;;;27.26;35.44;101115.86;106777;1254;66502;-91
2024/04/10 10:13:40;;;;;;;;;;;;;;;27.25;34.35;101112.48;106398;1255;62069;-85
2024/04/10 10:16:08;;;;;;;;;;;;;;;27.25;35.36;101116.34;106546;1258;61947;-85
2024/04/10 10:18:35;;;;;;;;;;;;;;;27.24;35.31;101115.92;106181;1256;69286;-85
2024/04/10 10:21:10;;;;;;;;;;;;;;;27.25;34.23;101114.80;106272;1257;71119;-89
2024/04/10 10:23:38;;;;;;;;;;;;;;;27.30;32.59;101107.98;106521;1260;74623;-87
2024/04/10 10:26:07;;;;;;;;;;;;;;;27.34;33.52;101108.92;106339;1255;62123;-86
2024/04/10 10:28:36;;;;;;;;;;;;;;;27.38;32.79;101110.76;106241;1258;62054;-85
2024/04/10 10:31:12;;;;;;;;;;;;;;;27.43;34.05;101115.17;106286;1255;74156;-85
2024/04/10 10:33:43;;;;;;;;;;;;;;;27.48;33.01;101116.67;106270;1255;62034;-88
2024/04/10 10:36:14;;;;;;;;;;;;;;;27.47;35.12;101116.98;106554;1257;77599;-86
2024/04/10 10:38:42;;;;;;;;;;;;;;;27.48;35.41;101117.48;106485;1254;62078;-89
2024/04/10 10:41:11;;;;;;;;;;;;;;;27.56;35.50;101120.08;104796;1259;2037169;-87
2024/04/10 10:43:45;;;;;;;;;;;;;;;27.61;35.57;101118.94;106392;1254;77549;-89
2024/04/10 10:46:13;;;;;;;;;;;;;;;27.69;35.74;101122.66;106256;1254;69896;-89
2024/04/10 10:48:41;;;;;;;;;;;;;;;27.76;34.30;101120.51;106483;1254;74827;-87
2024/04/10 10:51:09;;;;;;;;;;;;;;;27.79;34.55;101121.26;106230;1257;61947;-89
2024/04/10 10:53:40;;;;;;;;;;;;;;;27.79;33.90;101126.33;107398;1258;62147;-85
2024/04/10 10:56:07;;;;;;;;;;;;;;;27.79;32.37;101122.70;106135;1268;69121;-87
2024/04/10 10:58:35;;;;;;;;;;;;;;;27.76;31.67;101122.42;106225;1254;62365;-92
2024/04/10 11:01:06;;;;;;;;;;;;;;;27.74;31.20;101121.84;106093;1257;74556;-85
2024/04/10 11:03:33;;;;;;;;;;;;;;;27.81;30.67;101120.02;106655;1258;62073;-89
2024/04/10 11:06:11;;;;;;;;;;;;;;;27.86;32.91;101121.40;108515;1254;60760;-89
2024/04/10 11:08:39;;;;;;;;;;;;;;;27.90;32.85;101120.14;106064;1257;77704;-85
2024/04/10 11:11:16;;;;;;;;;;;;;;;27.90;32.23;101117.73;105961;1255;62162;-91
2024/04/10 11:13:49;;;;;;;;;;;;;;;27.87;32.85;101119.23;106436;1256;65760;-88
2024/04/10 11:16:27;;;;;;;;;;;;;;;27.83;32.90;101117.48;106109;1254;62147;-85
2024/04/10 11:18:55;;;;;;;;;;;;;;;27.78;30.97;101116.19;106310;1260;62028;-85
2024/04/10 11:21:23;;;;;;;;;;;;;;;27.76;33.59;101117.05;106941;1258;76618;-89
2024/04/10 11:23:50;;;;;;;;;;;;;;;27.75;32.02;101116.64;106030;1260;68820;-86
2024/04/10 11:26:18;;;;;;;;;;;;;;;27.71;32.08;101114.27;106259;1254;74543;-87
2024/04/10 11:28:51;;;;;;;;;;;;;;;27.65;33.41;101112.09;106157;1259;62111;-90
2024/04/10 11:31:19;;;;;;;;;;;;;;;27.66;32.02;101112.66;106242;1254;62159;-85
2024/04/10 11:33:47;;;;;;;;;;;;;;;27.71;31.71;101108.96;106271;1254;67862;-89
2024/04/10 11:36:15;;;;;;;;;;;;;;;27.85;31.03;101106.52;106265;1254;69579;-89
2024/04/10 11:38:43;;;;;;;;;;;;;;;28.04;30.60;101102.98;106195;1257;73374;-86
2024/04/10 11:41:12;;;;;;;;;;;;;;;28.21;28.99;101101.34;106260;1258;62150;-85
2024/04/10 11:43:40;;;;;;;;;;;;;;;28.35;29.11;101099.88;106378;1260;61997;-89
2024/04/10 11:46:09;;;;;;;;;;;;;;;28.53;29.44;101103.62;106273;1254;76366;-84
2024/04/10 11:48:37;;;;;;;;;;;;;;;28.62;29.36;101102.83;106239;1255;62249;-85
2024/04/10 11:51:05;;;;;;;;;;;;;;;28.65;30.25;101102.13;106164;1254;74389;-85
2024/04/10 11:53:33;;;;;;;;;;;;;;;28.68;30.30;101101.11;106147;1256;62253;-84
2024/04/10 11:56:00;;;;;;;;;;;;;;;28.72;30.38;101097.05;106346;1254;61996;-83
2024/04/10 11:58:28;;;;;;;;;;;;;;;28.80;29.65;101097.20;106498;1258;77975;-84
2024/04/10 12:00:55;;;;;;;;;;;;;;;28.93;30.49;101095.38;106367;1257;62047;-85
2024/04/10 12:03:23;;;;;;;;;;;;;;;29.16;30.02;101091.96;106351;1256;74254;-84
2024/04/10 12:05:51;;;;;;;;;;;;;;;29.33;30.19;101089.74;106471;1258;62156;-83
2024/04/10 12:08:19;;;;;;;;;;;;;;;29.67;30.47;101084.63;106446;1258;62079;-85
2024/04/10 12:10:47;;;;;;;;;;;;;;;29.98;30.30;101083.55;106239;1254;68231;-84
2024/04/10 12:13:14;;;;;;;;;;;;;;;30.22;28.68;101081.79;106288;1253;71562;-83
2024/04/10 12:15:42;;;;;;;;;;;;;;;30.39;28.18;101082.02;106160;1260;74950;-84
2024/04/10 12:18:09;;;;;;;;;;;;;;;30.57;27.81;101081.63;106312;1254;62002;-84
2024/04/10 12:20:37;;;;;;;;;;;;;;;30.72;27.64;101074.45;106285;1254;62140;-85
2024/04/10 12:23:05;;;;;;;;;;;;;;;30.76;27.64;101076.80;106313;1254;68035;-85
2024/04/10 12:25:32;;;;;;;;;;;;;;;30.73;26.45;101077.35;106118;1254;62044;-85
2024/04/10 12:28:02;;;;;;;;;;;;;;;30.82;26.20;101077.84;106420;1254;64242;-85
2024/04/10 12:30:29;;;;;;;;;;;;;;;30.88;26.24;101074.71;106314;1254;62752;-85
2024/04/10 12:32:57;;;;;;;;;;;;;;;30.84;26.95;101078.25;106383;1256;62076;-87